Ellis, Wisconsin
Current Conditions -  °F | °C
As of 7:15 AM on Tuesday 21 Oct 2014 (Local Time) from KSTE Reporting Station
Overcast Overcast  
Wind Chill: 34°   Ceiling: 2000
Heat Index: 39°   Visibility: 10mi
Dew Point: 34°   Wind: 7mph
Humidity: 83%   Direction: 30°NNE
Pressure: 30.18"   Gusts: NA
Location:  44.5531°N, 89.5186°W
Report Text: KSTE 211215Z AUTO 03006KT 10SM OVC020 04/01 A3018 RMK AO2 T00370010
Loading
Personal Weather Stations






























Interactive Weather Map
Tropical Storm Tracking
New forecast layout! Learn more

10-Day Weather Forecast

Advertisements
Track Severe Weather on mobile